Time;durP1;ratioP1;P1;durP2;ratioP2;P2;SDS_P1;SDS_P2;PMS_P1;PMS_P2;Temp;Humidity;BMP_temperature;BMP_pressure;BME280_temperature;BME280_humidity;BME280_pressure;Samples;Min_cycle;Max_cycle;Signal;HPM_P1;HPM_P2
2022/10/24 00:01:15;;;;;;;9.13;2.92;;;16.90;99.90;;;;;;5049183;28;20085;-81
2022/10/24 00:03:42;;;;;;;12.57;2.90;;;16.80;99.90;;;;;;5039273;28;20032;-80
2022/10/24 00:09:31;;;;;;;7.57;2.72;;;16.70;99.90;;;;;;4998948;28;20030;-81
2022/10/24 00:12:03;;;;;;;11.98;2.83;;;16.60;99.90;;;;;;5042800;28;20066;-80
2022/10/24 00:14:30;;;;;;;10.35;2.90;;;16.60;99.90;;;;;;5037758;28;20029;-80
2022/10/24 00:16:56;;;;;;;10.32;2.92;;;16.50;99.90;;;;;;5051930;28;20036;-80
2022/10/24 00:19:22;;;;;;;8.38;3.33;;;16.50;99.90;;;;;;5050345;28;20108;-80
2022/10/24 00:21:47;;;;;;;8.30;2.78;;;16.50;99.90;;;;;;5042028;28;20148;-80
2022/10/24 00:24:14;;;;;;;12.57;3.15;;;16.40;99.90;;;;;;5045104;28;20446;-80
2022/10/24 00:26:40;;;;;;;6.53;2.30;;;16.40;99.90;;;;;;5053049;28;20099;-80
2022/10/24 00:29:05;;;;;;;9.07;2.70;;;16.40;99.90;;;;;;5051733;28;20171;-80
2022/10/24 00:31:32;;;;;;;6.53;2.67;;;16.30;99.90;;;;;;5051824;28;20033;-81
2022/10/24 00:33:58;;;;;;;6.50;2.25;;;16.20;99.90;;;;;;5053019;28;20057;-81
2022/10/24 00:36:25;;;;;;;8.20;2.80;;;16.20;99.90;;;;;;5037729;28;20052;-81
2022/10/24 00:38:51;;;;;;;7.22;2.70;;;16.20;99.90;;;;;;5051667;28;20028;-81
2022/10/24 00:41:36;;;;;;;7.93;2.40;;;16.20;99.90;;;;;;5051723;28;20025;-81
2022/10/24 00:44:22;;;;;;;10.77;2.53;;;16.20;99.90;;;;;;5053009;28;20049;-81
2022/10/24 00:46:58;;;;;;;6.53;1.95;;;16.20;99.90;;;;;;5052841;28;20025;-81
2022/10/24 00:49:38;;;;;;;7.80;2.40;;;16.10;99.90;;;;;;5051709;28;20025;-81
2022/10/24 00:52:07;;;;;;;11.20;2.30;;;16.10;99.90;;;;;;5053234;28;20021;-81
2022/10/24 00:54:37;;;;;;;8.80;2.20;;;16.10;99.90;;;;;;5042734;28;20478;-81
2022/10/24 00:57:05;;;;;;;7.80;2.05;;;16.10;99.90;;;;;;5051077;28;20012;-81
2022/10/24 00:59:33;;;;;;;9.23;1.80;;;16.00;99.90;;;;;;5035785;28;20068;-81
2022/10/24 01:01:59;;;;;;;7.18;2.10;;;16.00;99.90;;;;;;5025667;28;20760;-80
2022/10/24 01:04:24;;;;;;;6.72;2.10;;;16.00;99.90;;;;;;5040090;28;20051;-80
2022/10/24 01:07:11;;;;;;;7.70;2.30;;;16.10;99.90;;;;;;5038670;28;20083;-81
2022/10/24 01:10:01;;;;;;;12.02;2.20;;;16.10;99.90;;;;;;5045161;28;20358;-81
2022/10/24 01:12:44;;;;;;;5.72;2.20;;;16.10;99.90;;;;;;5062965;28;20124;-81
2022/10/24 01:15:37;;;;;;;7.95;2.05;;;16.10;99.90;;;;;;5042751;28;20029;-81
2022/10/24 01:21:42;;;;;;;8.70;2.05;;;16.10;99.90;;;;;;5061797;28;20518;-82
2022/10/24 01:24:41;;;;;;;4.65;2.05;;;16.10;99.90;;;;;;5074869;28;20020;-81
2022/10/24 01:27:44;;;;;;;6.15;2.10;;;16.20;99.90;;;;;;5068206;28;20028;-80
2022/10/24 01:30:15;;;;;;;6.25;2.20;;;16.20;99.90;;;;;;5073514;28;20036;-81
2022/10/24 01:33:19;;;;;;;6.97;2.00;;;16.20;99.90;;;;;;5074650;28;20048;-80
2022/10/24 01:35:55;;;;;;;9.13;2.35;;;16.20;99.90;;;;;;5050621;28;20111;-81
2022/10/24 01:41:43;;;;;;;10.52;2.60;;;16.10;99.90;;;;;;5056574;28;20063;-80
2022/10/24 01:44:22;;;;;;;5.60;2.10;;;16.20;99.90;;;;;;5041359;28;20049;-80
2022/10/24 01:46:54;;;;;;;11.57;2.63;;;16.20;99.90;;;;;;5054610;28;20455;-80
2022/10/24 01:49:24;;;;;;;10.27;2.50;;;16.20;99.90;;;;;;5055813;28;20017;-80
2022/10/24 01:51:55;;;;;;;7.72;2.45;;;16.10;99.90;;;;;;5072972;28;20024;-82
2022/10/24 01:54:21;;;;;;;6.28;2.33;;;16.20;99.90;;;;;;5064509;28;20151;-81
2022/10/24 01:56:47;;;;;;;6.82;2.17;;;16.20;99.90;;;;;;5068907;28;20048;-81
2022/10/24 01:59:24;;;;;;;6.32;2.20;;;16.20;99.90;;;;;;5054329;28;20032;-80
2022/10/24 02:01:52;;;;;;;8.10;2.22;;;16.20;99.90;;;;;;5065971;28;20074;-80
2022/10/24 02:04:18;;;;;;;7.88;2.00;;;16.20;99.90;;;;;;5058759;28;20036;-81
2022/10/24 02:06:45;;;;;;;9.05;2.35;;;16.30;99.90;;;;;;5050766;28;20501;-81
2022/10/24 02:09:16;;;;;;;12.88;3.08;;;16.20;99.90;;;;;;5054177;28;20100;-82
2022/10/24 02:11:44;;;;;;;8.23;2.67;;;16.20;99.90;;;;;;5055449;28;20029;-81
2022/10/24 02:14:17;;;;;;;8.45;2.35;;;16.20;99.90;;;;;;5054058;28;20572;-81
2022/10/24 02:16:43;;;;;;;11.75;2.47;;;16.30;99.90;;;;;;5055179;28;20017;-81
2022/10/24 02:19:10;;;;;;;4.78;2.47;;;16.20;99.90;;;;;;5054983;28;20029;-81
2022/10/24 02:21:44;;;;;;;8.48;2.40;;;16.20;99.90;;;;;;5037090;28;20040;-80
2022/10/24 02:24:20;;;;;;;7.88;1.92;;;16.20;99.90;;;;;;5049322;28;20037;-80
2022/10/24 02:26:57;;;;;;;7.22;2.20;;;16.30;99.90;;;;;;5049019;28;20059;-81
2022/10/24 02:29:55;;;;;;;8.15;2.00;;;16.30;99.90;;;;;;5042141;28;20111;-80
2022/10/24 02:32:27;;;;;;;7.78;2.58;;;16.30;99.90;;;;;;5052557;28;20025;-80
2022/10/24 02:34:54;;;;;;;6.70;2.63;;;16.40;99.90;;;;;;5054846;28;20021;-81
2022/10/24 02:37:22;;;;;;;5.40;1.70;;;16.40;99.90;;;;;;5036471;28;20025;-81
2022/10/24 02:39:48;;;;;;;6.75;2.08;;;16.40;99.90;;;;;;5054878;28;20479;-81
2022/10/24 02:42:15;;;;;;;9.63;2.47;;;16.40;99.90;;;;;;5053403;28;20021;-81
2022/10/24 02:44:42;;;;;;;8.68;1.98;;;16.50;99.90;;;;;;5054553;28;20343;-81
2022/10/24 02:47:11;;;;;;;6.93;1.77;;;16.50;99.90;;;;;;5033617;28;20030;-81
2022/10/24 02:50:03;;;;;;;6.43;2.63;;;16.50;99.90;;;;;;5034890;28;20131;-81
2022/10/24 02:52:29;;;;;;;6.53;1.77;;;16.50;99.90;;;;;;5060036;28;20025;-81
2022/10/24 02:54:55;;;;;;;6.00;1.70;;;16.50;99.90;;;;;;5073450;28;20032;-81
2022/10/24 02:57:22;;;;;;;8.43;2.00;;;16.50;99.90;;;;;;5073173;28;20137;-81
2022/10/24 02:59:48;;;;;;;9.27;2.00;;;16.60;99.90;;;;;;5056874;28;20021;-80
2022/10/24 03:02:14;;;;;;;9.90;1.73;;;16.60;99.90;;;;;;5052104;28;20052;-80
2022/10/24 03:04:40;;;;;;;8.38;1.75;;;16.60;99.90;;;;;;5069446;28;20062;-80
2022/10/24 03:07:06;;;;;;;6.97;1.88;;;16.60;99.90;;;;;;5039677;28;20048;-80
2022/10/24 03:09:32;;;;;;;9.38;2.03;;;16.60;99.90;;;;;;5072966;28;20033;-80
2022/10/24 03:11:58;;;;;;;5.25;1.88;;;16.60;99.90;;;;;;5065659;28;20055;-81
2022/10/24 03:14:24;;;;;;;7.10;1.90;;;16.60;99.90;;;;;;5044945;28;20061;-80
2022/10/24 03:16:50;;;;;;;7.43;1.75;;;16.60;99.90;;;;;;5028327;28;20024;-80
2022/10/24 03:19:15;;;;;;;5.13;1.80;;;16.60;99.90;;;;;;5056845;28;20514;-81
2022/10/24 03:21:41;;;;;;;7.18;2.00;;;16.70;99.90;;;;;;5051952;28;20021;-81
2022/10/24 03:24:07;;;;;;;6.30;1.65;;;16.60;99.90;;;;;;5060421;28;20152;-84
2022/10/24 03:26:33;;;;;;;7.85;2.28;;;16.70;99.90;;;;;;5073921;28;20032;-85
2022/10/24 03:28:58;;;;;;;3.95;1.60;;;16.70;99.90;;;;;;5058561;28;20020;-84
2022/10/24 03:31:25;;;;;;;6.07;1.80;;;16.70;99.90;;;;;;5072575;28;20029;-84
2022/10/24 03:33:50;;;;;;;6.32;1.50;;;16.70;99.90;;;;;;5073844;28;20032;-84
2022/10/24 03:36:17;;;;;;;5.25;1.63;;;16.70;99.90;;;;;;5024118;28;20382;-84
2022/10/24 03:38:42;;;;;;;8.32;2.35;;;16.70;99.90;;;;;;5019527;28;20025;-84
2022/10/24 03:41:08;;;;;;;6.38;1.63;;;16.70;99.90;;;;;;5065645;28;20025;-84
2022/10/24 03:43:34;;;;;;;5.63;1.60;;;16.70;99.90;;;;;;5035580;28;20482;-85
2022/10/24 03:45:59;;;;;;;3.92;1.40;;;16.70;99.90;;;;;;5035583;28;20043;-85
2022/10/24 03:48:26;;;;;;;5.25;1.85;;;16.80;99.90;;;;;;5055355;28;20074;-85
2022/10/24 03:50:51;;;;;;;8.13;1.45;;;16.80;99.90;;;;;;5063330;28;20035;-83
2022/10/24 03:53:17;;;;;;;5.95;1.60;;;16.80;99.90;;;;;;5034702;28;20392;-80
2022/10/24 03:55:43;;;;;;;7.43;1.33;;;16.80;99.90;;;;;;5073106;28;20029;-83
2022/10/24 03:58:08;;;;;;;6.15;1.63;;;16.80;99.90;;;;;;5039395;23;20050;-81
2022/10/24 04:00:38;;;;;;;5.50;1.40;;;16.80;99.90;;;;;;5016980;28;20026;-79
2022/10/24 04:03:05;;;;;;;6.03;1.33;;;16.80;99.90;;;;;;5033362;28;20486;-80
2022/10/24 04:05:31;;;;;;;7.30;1.70;;;16.80;99.90;;;;;;5033691;28;20036;-80
2022/10/24 04:07:57;;;;;;;4.85;1.65;;;16.80;99.90;;;;;;5015846;28;20022;-80
2022/10/24 04:10:22;;;;;;;6.25;1.70;;;16.90;99.90;;;;;;5031962;28;20033;-80
2022/10/24 04:12:48;;;;;;;3.92;1.20;;;16.90;99.90;;;;;;5025020;28;20121;-80
2022/10/24 04:15:14;;;;;;;6.63;1.45;;;16.90;99.90;;;;;;5012297;28;20026;-80
2022/10/24 04:17:39;;;;;;;9.90;1.70;;;16.90;99.90;;;;;;5003743;28;20466;-82
2022/10/24 04:20:06;;;;;;;5.20;1.40;;;16.90;99.90;;;;;;5015780;28;20021;-82
2022/10/24 04:25:53;;;;;;;7.15;1.52;;;16.90;99.90;;;;;;5012308;28;20060;-82
2022/10/24 04:28:19;;;;;;;8.10;2.30;;;16.90;99.90;;;;;;5012288;28;20058;-82
2022/10/24 04:30:44;;;;;;;8.45;1.85;;;16.80;99.90;;;;;;5001967;28;20068;-82
2022/10/24 04:33:10;;;;;;;6.43;1.40;;;16.80;99.90;;;;;;5003939;28;20026;-82
2022/10/24 04:35:36;;;;;;;7.45;2.05;;;16.80;99.90;;;;;;5018164;28;20368;-82
2022/10/24 04:38:01;;;;;;;6.25;1.60;;;16.80;99.90;;;;;;5027600;28;20120;-82
2022/10/24 04:40:27;;;;;;;6.70;1.48;;;16.80;99.90;;;;;;5016431;28;20026;-83
2022/10/24 04:42:53;;;;;;;5.97;1.65;;;16.80;99.90;;;;;;5010099;28;20434;-83
2022/10/24 04:45:18;;;;;;;5.68;1.63;;;16.70;99.90;;;;;;5014543;28;20061;-83
2022/10/24 04:47:44;;;;;;;6.63;1.67;;;16.70;99.90;;;;;;4991928;28;20446;-82
2022/10/24 04:50:19;;;;;;;8.05;1.58;;;16.70;99.90;;;;;;5017311;28;20034;-83
2022/10/24 04:52:48;;;;;;;4.68;1.58;;;16.70;99.90;;;;;;4983369;28;20023;-82
2022/10/24 04:55:13;;;;;;;5.38;1.38;;;16.70;99.90;;;;;;4983151;28;20121;-82
2022/10/24 04:57:39;;;;;;;8.52;1.95;;;16.70;99.90;;;;;;5017009;28;20050;-83
2022/10/24 05:00:05;;;;;;;8.20;1.27;;;16.70;99.90;;;;;;4999915;28;20080;-83
2022/10/24 05:02:37;;;;;;;11.27;2.53;;;16.70;99.90;;;;;;5002325;28;20018;-82
2022/10/24 05:05:04;;;;;;;5.97;1.50;;;16.70;99.90;;;;;;5015962;28;20038;-82
2022/10/24 05:07:30;;;;;;;8.40;1.80;;;16.70;99.90;;;;;;5015655;28;20092;-80
2022/10/24 05:09:55;;;;;;;6.68;1.75;;;16.70;99.90;;;;;;5015552;28;20505;-79
2022/10/24 05:12:21;;;;;;;7.22;1.83;;;16.70;99.90;;;;;;5015536;28;20038;-80
2022/10/24 05:14:46;;;;;;;5.43;1.30;;;16.80;99.90;;;;;;4999125;28;20034;-80
2022/10/24 05:17:13;;;;;;;7.45;2.00;;;16.70;99.90;;;;;;5004249;28;20038;-81
2022/10/24 05:19:39;;;;;;;12.68;2.50;;;16.70;99.90;;;;;;4977268;28;20050;-80
2022/10/24 05:22:04;;;;;;;6.03;1.50;;;16.70;99.90;;;;;;5006458;28;20060;-80
2022/10/24 05:24:30;;;;;;;4.72;1.80;;;16.70;99.90;;;;;;5014267;28;20061;-80
2022/10/24 05:26:56;;;;;;;9.38;1.58;;;16.80;99.90;;;;;;4999091;28;20116;-82
2022/10/24 05:29:21;;;;;;;7.38;1.67;;;16.70;99.90;;;;;;4997063;28;20062;-82
2022/10/24 05:31:47;;;;;;;9.30;1.58;;;16.70;99.90;;;;;;4988582;28;20133;-81
2022/10/24 05:34:13;;;;;;;7.90;1.80;;;16.80;99.90;;;;;;4996852;28;20383;-82
2022/10/24 05:36:39;;;;;;;6.93;1.80;;;16.80;99.90;;;;;;5012526;28;20033;-82
2022/10/24 05:39:04;;;;;;;7.68;1.60;;;16.80;99.90;;;;;;4989144;28;20030;-83
2022/10/24 05:41:31;;;;;;;6.65;2.00;;;16.80;99.90;;;;;;5014337;28;20029;-82
2022/10/24 05:43:57;;;;;;;7.30;1.63;;;16.80;99.90;;;;;;5009232;28;20034;-82
2022/10/24 05:46:23;;;;;;;7.40;2.08;;;16.70;99.90;;;;;;4992663;28;20052;-82
2022/10/24 05:48:48;;;;;;;10.90;1.73;;;16.70;99.90;;;;;;4983498;28;20112;-83
2022/10/24 05:51:14;;;;;;;7.85;1.50;;;16.70;99.90;;;;;;4973696;28;20061;-82
2022/10/24 05:53:40;;;;;;;7.30;1.40;;;16.70;99.90;;;;;;4995954;28;20030;-83
2022/10/24 05:56:06;;;;;;;5.40;1.20;;;16.70;99.90;;;;;;4982517;28;20025;-83
2022/10/24 05:58:32;;;;;;;7.22;1.60;;;16.70;99.90;;;;;;4998624;28;20399;-83
2022/10/24 06:00:57;;;;;;;7.50;1.50;;;16.70;99.90;;;;;;4976004;28;20028;-83
2022/10/24 06:03:23;;;;;;;5.75;1.77;;;16.70;99.90;;;;;;4991756;28;20450;-83
2022/10/24 06:05:49;;;;;;;8.68;1.67;;;16.60;99.90;;;;;;4994014;28;20027;-83
2022/10/24 06:08:15;;;;;;;7.28;1.70;;;16.70;99.90;;;;;;4973661;28;20053;-83
2022/10/24 06:10:51;;;;;;;8.70;1.63;;;16.70;99.90;;;;;;4984626;28;20062;-83
2022/10/24 06:13:17;;;;;;;4.72;1.17;;;16.60;99.90;;;;;;4982273;28;20026;-83
2022/10/24 06:15:43;;;;;;;5.00;1.70;;;16.60;99.90;;;;;;5014251;28;20058;-83
2022/10/24 06:18:10;;;;;;;12.88;1.85;;;16.60;99.90;;;;;;5014781;28;20038;-83
2022/10/24 06:20:37;;;;;;;6.72;1.20;;;16.60;99.90;;;;;;5015860;28;20022;-83
2022/10/24 06:23:02;;;;;;;11.20;1.70;;;16.60;99.90;;;;;;5002819;28;20025;-83
2022/10/24 06:25:28;;;;;;;7.20;1.73;;;16.60;99.90;;;;;;4998896;28;20026;-83
2022/10/24 06:27:54;;;;;;;6.80;1.45;;;16.60;99.90;;;;;;5027760;28;20527;-81
2022/10/24 06:30:19;;;;;;;7.88;1.80;;;16.60;99.90;;;;;;5001376;28;20355;-81
2022/10/24 06:32:45;;;;;;;9.18;1.75;;;16.60;99.90;;;;;;5000910;28;20502;-83
2022/10/24 06:35:13;;;;;;;7.05;1.50;;;16.60;99.90;;;;;;4988196;28;20038;-83
2022/10/24 06:37:39;;;;;;;7.80;1.50;;;16.60;99.90;;;;;;5002137;28;20112;-83
2022/10/24 06:40:05;;;;;;;6.35;1.40;;;16.60;99.90;;;;;;4980934;28;20125;-83
2022/10/24 06:42:31;;;;;;;12.35;2.03;;;16.60;99.90;;;;;;5015521;28;20379;-84
2022/10/24 06:44:57;;;;;;;6.90;1.55;;;16.60;99.90;;;;;;4984594;28;20547;-83
2022/10/24 06:47:22;;;;;;;17.98;2.15;;;16.70;99.90;;;;;;4994848;28;20124;-83
2022/10/24 06:49:51;;;;;;;8.05;1.38;;;16.70;99.90;;;;;;4981648;28;20038;-83
2022/10/24 06:52:17;;;;;;;4.63;1.10;;;16.70;99.90;;;;;;4987509;28;20067;-84
2022/10/24 06:54:42;;;;;;;8.63;1.60;;;16.70;99.90;;;;;;4992225;28;20061;-83
2022/10/24 06:57:08;;;;;;;6.53;1.40;;;16.70;99.90;;;;;;4983860;28;20045;-82
2022/10/24 06:59:34;;;;;;;9.02;1.90;;;16.70;99.90;;;;;;5003694;28;20080;-82
2022/10/24 07:01:59;;;;;;;10.13;1.90;;;16.70;99.90;;;;;;4977135;28;20084;-82
2022/10/24 07:04:25;;;;;;;9.15;2.03;;;16.70;99.90;;;;;;4974619;28;20035;-83
2022/10/24 07:06:51;;;;;;;7.63;1.70;;;16.80;99.90;;;;;;5021755;28;20109;-83
2022/10/24 07:09:16;;;;;;;10.52;1.95;;;16.80;99.90;;;;;;4997299;28;20038;-82
2022/10/24 07:11:43;;;;;;;9.75;1.83;;;16.80;99.90;;;;;;4988556;28;20037;-84
2022/10/24 07:14:09;;;;;;;7.45;1.90;;;16.80;99.90;;;;;;4996397;28;20101;-83
2022/10/24 07:16:36;;;;;;;8.52;2.00;;;16.80;99.90;;;;;;4989789;28;20026;-83
2022/10/24 07:19:02;;;;;;;9.90;2.92;;;16.80;99.90;;;;;;4997087;28;20419;-83
2022/10/24 07:21:30;;;;;;;6.35;1.75;;;16.80;99.90;;;;;;5004627;28;20478;-83
2022/10/24 07:23:56;;;;;;;9.20;1.83;;;16.90;99.90;;;;;;5023004;28;20131;-83
2022/10/24 07:26:24;;;;;;;10.57;1.80;;;16.90;99.90;;;;;;4997279;28;20080;-83
2022/10/24 07:28:53;;;;;;;7.68;1.65;;;16.90;99.90;;;;;;4999228;28;20041;-83
2022/10/24 07:31:24;;;;;;;11.45;2.10;;;16.90;99.90;;;;;;5001814;28;20026;-83
2022/10/24 07:33:51;;;;;;;8.90;1.85;;;16.90;99.90;;;;;;5011171;28;20160;-84
2022/10/24 07:36:18;;;;;;;8.57;1.70;;;16.90;99.90;;;;;;5012394;28;20031;-82
2022/10/24 07:38:45;;;;;;;8.93;2.05;;;17.00;99.90;;;;;;5006414;28;20034;-83
2022/10/24 07:41:11;;;;;;;11.23;1.95;;;16.90;99.90;;;;;;5010276;28;20029;-84
2022/10/24 07:43:36;;;;;;;8.32;2.15;;;17.00;99.90;;;;;;4997100;28;20018;-85
2022/10/24 07:46:10;;;;;;;11.68;1.88;;;17.00;99.90;;;;;;4980765;28;20026;-84
2022/10/24 07:48:37;;;;;;;7.93;1.70;;;17.00;99.90;;;;;;5012385;28;20467;-84
2022/10/24 07:51:12;;;;;;;10.45;2.03;;;17.00;99.90;;;;;;5015334;28;20432;-84
2022/10/24 07:53:39;;;;;;;10.80;1.67;;;17.00;99.90;;;;;;5015633;28;20062;-84
2022/10/24 07:56:08;;;;;;;7.20;1.90;;;17.10;99.90;;;;;;5005287;28;20018;-83
2022/10/24 07:58:34;;;;;;;10.02;1.92;;;17.10;99.90;;;;;;5015506;28;20144;-83
2022/10/24 08:01:06;;;;;;;12.60;1.63;;;17.10;99.90;;;;;;5013682;28;20033;-84
2022/10/24 08:03:32;;;;;;;9.45;1.80;;;17.10;99.90;;;;;;5013055;28;20040;-83
2022/10/24 08:05:58;;;;;;;13.18;2.58;;;17.20;99.90;;;;;;4996435;28;20021;-84
2022/10/24 08:08:24;;;;;;;7.10;1.83;;;17.20;99.90;;;;;;4996057;28;20160;-83
2022/10/24 08:10:49;;;;;;;10.48;2.38;;;17.20;99.90;;;;;;4995494;28;20095;-83
2022/10/24 08:13:15;;;;;;;7.93;2.13;;;17.20;99.90;;;;;;4999481;28;20037;-84
2022/10/24 08:15:41;;;;;;;9.43;2.17;;;17.20;99.90;;;;;;4996057;28;20045;-83
2022/10/24 08:18:06;;;;;;;12.23;2.08;;;17.20;99.90;;;;;;4979900;28;20245;-84
2022/10/24 08:20:32;;;;;;;13.20;1.67;;;17.30;99.90;;;;;;4984656;28;20027;-85
2022/10/24 08:22:58;;;;;;;10.05;2.33;;;17.30;99.90;;;;;;4995809;28;20030;-84
2022/10/24 08:25:24;;;;;;;13.52;2.30;;;17.30;99.90;;;;;;4996269;28;20037;-84
2022/10/24 08:27:49;;;;;;;9.00;2.33;;;17.30;99.90;;;;;;4997979;28;20084;-84
2022/10/24 08:30:16;;;;;;;8.10;1.73;;;17.30;99.90;;;;;;4994845;28;20030;-83
2022/10/24 08:32:42;;;;;;;13.57;2.80;;;17.30;99.90;;;;;;4977554;28;20484;-82
2022/10/24 08:35:08;;;;;;;7.72;1.90;;;17.30;99.90;;;;;;4991265;28;20080;-83
2022/10/24 08:37:36;;;;;;;11.02;1.65;;;17.30;99.90;;;;;;4988717;28;20383;-84
2022/10/24 08:40:06;;;;;;;11.30;1.50;;;17.30;99.90;;;;;;4998186;28;20055;-83
2022/10/24 08:42:33;;;;;;;12.25;1.98;;;17.40;99.90;;;;;;4995357;28;20014;-83
2022/10/24 08:44:59;;;;;;;11.70;2.00;;;17.40;99.90;;;;;;4996844;28;20033;-83
2022/10/24 08:48:02;;;;;;;7.57;1.75;;;17.40;99.90;;;;;;4983414;28;20485;-82
2022/10/24 08:50:33;;;;;;;8.85;1.73;;;17.40;99.90;;;;;;5005175;28;20094;-83
2022/10/24 08:53:15;;;;;;;11.88;2.10;;;17.50;99.90;;;;;;4998189;28;20018;-82
2022/10/24 08:55:52;;;;;;;6.55;1.77;;;17.50;99.90;;;;;;5016944;28;20029;-82
2022/10/24 08:58:27;;;;;;;5.97;1.42;;;17.50;99.90;;;;;;4999909;28;20089;-82
2022/10/24 09:00:56;;;;;;;10.88;1.85;;;17.50;99.90;;;;;;4997356;28;20459;-83
2022/10/24 09:03:43;;;;;;;7.53;1.50;;;17.50;99.90;;;;;;4995632;28;20030;-84
2022/10/24 09:06:16;;;;;;;14.30;2.35;;;17.50;99.90;;;;;;5015591;28;20022;-82
2022/10/24 09:08:48;;;;;;;9.80;1.50;;;17.60;99.90;;;;;;5019204;28;20026;-83
2022/10/24 09:11:35;;;;;;;7.30;1.40;;;17.60;99.90;;;;;;5001662;28;20471;-82
2022/10/24 09:14:10;;;;;;;9.18;1.58;;;17.70;99.90;;;;;;4995048;28;20022;-83
2022/10/24 09:16:37;;;;;;;7.80;1.45;;;17.70;99.90;;;;;;4994776;28;20109;-83
2022/10/24 09:19:03;;;;;;;7.22;1.55;;;17.80;99.90;;;;;;4964428;28;20571;-83
2022/10/24 09:21:29;;;;;;;9.07;1.92;;;17.80;99.90;;;;;;4983527;28;20057;-82
2022/10/24 09:23:55;;;;;;;8.13;2.00;;;17.80;99.90;;;;;;4999334;28;20038;-83
2022/10/24 09:26:27;;;;;;;8.25;1.98;;;17.90;99.90;;;;;;4977396;28;20069;-84
2022/10/24 09:28:55;;;;;;;10.20;2.08;;;17.90;99.90;;;;;;4991792;28;20025;-83
2022/10/24 09:31:23;;;;;;;8.05;1.70;;;17.90;99.90;;;;;;4995791;28;20129;-83
2022/10/24 09:33:55;;;;;;;7.95;1.38;;;18.00;99.90;;;;;;5004472;28;20030;-83
2022/10/24 09:36:23;;;;;;;7.50;1.40;;;18.10;99.90;;;;;;5016208;28;20026;-83
2022/10/24 09:38:50;;;;;;;5.40;1.40;;;18.10;99.90;;;;;;5021891;28;20033;-83
2022/10/24 09:41:21;;;;;;;8.23;1.52;;;18.20;99.90;;;;;;4998464;28;20025;-84
2022/10/24 09:43:49;;;;;;;;;;;18.20;99.90;;;;;;5016615;28;20022;-84
2022/10/24 09:46:23;;;;;;;9.52;1.30;;;18.30;99.90;;;;;;4998512;28;20398;-84
2022/10/24 09:49:08;;;;;;;4.40;1.35;;;18.30;99.90;;;;;;5016022;28;20026;-84
2022/10/24 09:51:44;;;;;;;5.95;1.13;;;18.30;99.90;;;;;;5015535;28;20038;-84
2022/10/24 09:54:18;;;;;;;8.05;1.33;;;18.40;99.90;;;;;;5001359;28;20025;-84
2022/10/24 09:57:00;;;;;;;7.30;1.60;;;18.40;99.90;;;;;;4997825;28;20083;-82
2022/10/24 09:59:37;;;;;;;6.38;1.65;;;18.50;99.90;;;;;;4996200;28;20093;-83
2022/10/24 10:02:28;;;;;;;8.32;1.65;;;18.50;99.90;;;;;;4994000;28;20038;-82
2022/10/24 10:05:00;;;;;;;;;;;18.50;99.80;;;;;;4991521;28;20022;-83
2022/10/24 10:07:28;;;;;;;8.95;1.40;;;18.60;99.90;;;;;;5015982;28;19910;-82
2022/10/24 10:09:58;;;;;;;7.97;1.50;;;18.50;99.90;;;;;;5015793;28;20463;-82
2022/10/24 10:12:57;;;;;;;6.63;1.70;;;18.50;99.90;;;;;;4998267;28;21623;-84
2022/10/24 10:15:58;;;;;;;5.13;1.23;;;18.50;99.70;;;;;;4998583;28;20463;-83
2022/10/24 10:18:24;;;;;;;8.07;1.27;;;18.50;99.50;;;;;;4957974;28;20129;-83
2022/10/24 10:21:01;;;;;;;6.43;2.15;;;18.60;99.90;;;;;;4992068;28;20057;-83
2022/10/24 10:23:41;;;;;;;9.52;1.77;;;18.60;99.90;;;;;;4978733;28;20117;-83
2022/10/24 10:26:15;;;;;;;10.80;1.38;;;18.70;99.80;;;;;;5013273;28;20033;-83
2022/10/24 10:29:05;;;;;;;6.10;1.67;;;18.70;99.60;;;;;;5005010;28;20022;-83
2022/10/24 10:31:36;;;;;;;7.05;1.50;;;18.80;99.90;;;;;;4994713;28;20038;-84
2022/10/24 10:34:32;;;;;;;8.00;1.88;;;18.80;99.60;;;;;;5015062;28;20108;-83
2022/10/24 10:37:21;;;;;;;5.57;1.65;;;18.90;99.00;;;;;;4997692;28;20061;-82
2022/10/24 10:39:47;;;;;;;6.20;1.88;;;18.90;99.20;;;;;;5001131;28;20480;-82
2022/10/24 10:42:22;;;;;;;5.38;1.02;;;18.90;98.50;;;;;;4997778;28;20061;-83
2022/10/24 10:44:48;;;;;;;5.18;1.05;;;18.90;98.50;;;;;;5015350;28;20033;-82
2022/10/24 10:47:46;;;;;;;7.35;1.50;;;19.00;99.20;;;;;;4997848;28;20033;-83
2022/10/24 10:51:02;;;;;;;4.28;1.00;;;19.10;99.10;;;;;;4983566;28;20030;-83
2022/10/24 10:53:59;;;;;;;4.80;1.33;;;19.20;98.70;;;;;;4994269;28;20072;-83
2022/10/24 10:56:42;;;;;;;7.20;1.30;;;19.20;98.10;;;;;;5014638;28;20021;-83
2022/10/24 10:59:19;;;;;;;7.45;1.67;;;19.30;98.60;;;;;;5014782;28;20050;-84
2022/10/24 11:02:15;;;;;;;4.63;1.15;;;19.30;98.60;;;;;;4997065;28;20026;-84
2022/10/24 11:04:41;;;;;;;5.03;1.45;;;19.30;97.70;;;;;;5003808;28;20057;-83
2022/10/24 11:07:31;;;;;;;7.57;1.27;;;19.30;98.50;;;;;;5011895;28;20037;-84
2022/10/24 11:10:01;;;;;;;7.55;1.40;;;19.30;98.30;;;;;;4997838;28;20113;-84
2022/10/24 11:12:37;;;;;;;7.35;1.50;;;19.30;98.40;;;;;;4984489;28;20407;-83
2022/10/24 11:15:15;;;;;;;5.03;1.10;;;19.30;98.30;;;;;;4996986;28;20108;-83
2022/10/24 11:18:06;;;;;;;5.45;1.20;;;19.30;98.30;;;;;;4983610;28;20041;-83
2022/10/24 11:20:49;;;;;;;6.85;1.23;;;19.30;98.80;;;;;;4994054;28;20084;-83
2022/10/24 11:23:28;;;;;;;5.75;1.05;;;19.40;98.90;;;;;;4982295;28;20365;-84
2022/10/24 11:25:57;;;;;;;5.82;1.48;;;19.40;99.00;;;;;;5010550;28;20036;-84
2022/10/24 11:29:02;;;;;;;7.32;1.40;;;19.50;98.60;;;;;;4988246;28;20042;-84
2022/10/24 11:31:35;;;;;;;4.80;1.20;;;19.50;97.60;;;;;;4958144;28;20042;-84
2022/10/24 11:34:31;;;;;;;5.32;1.48;;;19.60;97.90;;;;;;5007252;28;20069;-84
2022/10/24 11:37:20;;;;;;;13.50;2.35;;;19.60;97.70;;;;;;5003326;28;20403;-83
2022/10/24 11:40:00;;;;;;;5.28;1.27;;;19.60;97.30;;;;;;4996554;28;20080;-83
2022/10/24 11:42:59;;;;;;;4.70;1.07;;;19.60;96.80;;;;;;5010101;28;20360;-83
2022/10/24 11:45:34;;;;;;;3.90;1.15;;;19.50;96.70;;;;;;5012008;28;20022;-83
2022/10/24 11:48:12;;;;;;;4.72;1.13;;;19.50;97.10;;;;;;4996551;28;20032;-83
2022/10/24 11:50:41;;;;;;;5.95;1.00;;;19.50;96.90;;;;;;5013900;28;20038;-84
2022/10/24 11:53:30;;;;;;;3.38;1.20;;;19.40;97.00;;;;;;5013819;28;20105;-84
2022/10/24 11:56:22;;;;;;;6.57;1.45;;;19.40;97.50;;;;;;5005099;28;20022;-83
2022/10/24 11:58:56;;;;;;;5.05;1.20;;;19.40;97.70;;;;;;5020081;28;20054;-84
2022/10/24 12:01:46;;;;;;;10.50;1.40;;;19.30;98.30;;;;;;4992819;28;20045;-83
2022/10/24 12:04:31;;;;;;;5.10;1.10;;;19.20;98.90;;;;;;4994732;28;20432;-84
2022/10/24 12:06:56;;;;;;;6.75;1.50;;;19.20;99.30;;;;;;5020520;28;20129;-84
2022/10/24 12:09:40;;;;;;;9.20;1.45;;;19.10;99.10;;;;;;4999143;28;20064;-84
2022/10/24 12:12:21;;;;;;;4.72;1.33;;;18.90;99.00;;;;;;5022786;28;20480;-83
2022/10/24 12:15:14;;;;;;;8.05;1.38;;;18.90;99.70;;;;;;5001673;28;20058;-83
2022/10/24 12:18:14;;;;;;;3.42;1.17;;;18.90;99.50;;;;;;5024144;28;20033;-83
2022/10/24 12:20:41;;;;;;;5.10;1.40;;;18.80;99.30;;;;;;5025284;28;20032;-83
2022/10/24 12:23:23;;;;;;;4.95;1.40;;;18.90;99.90;;;;;;4969473;28;20502;-83
2022/10/24 12:26:17;;;;;;;5.57;1.08;;;18.90;99.80;;;;;;5015548;28;20126;-83
2022/10/24 12:29:03;;;;;;;5.88;1.20;;;18.90;99.90;;;;;;5004069;28;20022;-83
2022/10/24 12:31:35;;;;;;;7.45;1.50;;;18.90;99.90;;;;;;5015253;28;20058;-83
2022/10/24 12:34:17;;;;;;;4.00;1.13;;;19.00;99.90;;;;;;5033281;28;20490;-83
2022/10/24 12:37:09;;;;;;;5.70;1.50;;;19.00;99.90;;;;;;5012870;28;20068;-83
2022/10/24 12:39:44;;;;;;;8.50;1.92;;;19.00;99.90;;;;;;5033193;28;20029;-83
2022/10/24 12:42:35;;;;;;;10.32;1.80;;;19.10;99.90;;;;;;5009884;28;20448;-83
2022/10/24 12:45:01;;;;;;;8.68;1.85;;;19.10;99.90;;;;;;4995925;28;20022;-83
2022/10/24 12:47:34;;;;;;;18.77;2.65;;;19.10;99.90;;;;;;4999602;28;20088;-83
2022/10/24 12:50:19;;;;;;;4.78;1.15;;;19.00;99.90;;;;;;4995875;28;20022;-83
2022/10/24 12:52:49;;;;;;;11.80;2.40;;;19.00;99.90;;;;;;5006653;28;20544;-84
2022/10/24 12:55:56;;;;;;;5.03;1.50;;;18.90;99.90;;;;;;5017075;28;20030;-84
2022/10/24 12:58:29;;;;;;;8.98;1.90;;;18.90;99.90;;;;;;5016997;28;20056;-82
2022/10/24 13:01:04;;;;;;;5.35;1.45;;;18.70;99.90;;;;;;4999526;28;20022;-83
2022/10/24 13:03:54;;;;;;;7.60;1.60;;;18.70;99.90;;;;;;4999489;28;20052;-82
2022/10/24 13:07:02;;;;;;;6.72;1.52;;;18.60;99.90;;;;;;5008577;28;20056;-83
2022/10/24 13:09:48;;;;;;;8.30;1.50;;;18.60;99.90;;;;;;4980113;28;20034;-82
2022/10/24 13:12:33;;;;;;;10.90;1.70;;;18.60;99.90;;;;;;4994136;28;20451;-82
2022/10/24 13:15:20;;;;;;;8.32;1.73;;;18.60;99.90;;;;;;4999513;28;20050;-82
2022/10/24 13:18:01;;;;;;;8.73;1.48;;;18.60;99.90;;;;;;5016554;28;20025;-82
2022/10/24 13:20:34;;;;;;;7.68;1.88;;;18.60;99.90;;;;;;4999486;28;20349;-82
2022/10/24 13:23:04;;;;;;;6.28;1.73;;;18.70;99.90;;;;;;5016337;28;20025;-82
2022/10/24 13:25:35;;;;;;;8.13;1.60;;;18.60;99.90;;;;;;5016654;28;20036;-83